Time;durP1;ratioP1;P1;durP2;ratioP2;P2;SDS_P1;SDS_P2;PMS_P1;PMS_P2;Temp;Humidity;BMP_temperature;BMP_pressure;BME280_temperature;BME280_humidity;BME280_pressure;Samples;Min_cycle;Max_cycle;Signal;HPM_P1;HPM_P2
2021/11/09 00:00:42;;;;;;;;;;;;;;;15.15;100.00;102350.25;5053843;28;20122;-52
2021/11/09 00:03:10;;;;;;;30.27;14.27;;;;;;;15.09;100.00;102350.19;5053088;28;20019;-53
2021/11/09 00:05:56;;;;;;;42.53;15.63;;;;;;;14.77;100.00;102343.16;5053155;28;20487;-54
2021/11/09 00:08:25;;;;;;;43.03;15.90;;;;;;;14.85;100.00;102334.13;5054167;28;20065;-52
2021/11/09 00:10:51;;;;;;;46.75;16.67;;;;;;;14.57;100.00;102333.94;5053921;28;20045;-50
2021/11/09 00:13:18;;;;;;;43.23;14.67;;;;;;;14.72;100.00;102323.19;5054644;28;20427;-49
2021/11/09 00:15:45;;;;;;;38.60;15.68;;;;;;;14.71;100.00;102333.13;5054489;28;20051;-49
2021/11/09 00:18:11;;;;;;;39.75;16.38;;;;;;;14.71;100.00;102343.06;5052650;28;20045;-53
2021/11/09 00:20:38;;;;;;;46.25;15.20;;;;;;;14.81;100.00;102350.88;5069405;28;20093;-54
2021/11/09 00:23:06;;;;;;;40.65;16.10;;;;;;;14.67;100.00;102353.31;5052855;28;20040;-53
2021/11/09 00:25:32;;;;;;;36.72;15.88;;;;;;;14.93;100.00;102357.44;5052788;28;20478;-51
2021/11/09 00:27:58;;;;;;;33.75;15.73;;;;;;;14.92;100.00;102355.75;5053875;28;20591;-52
2021/11/09 00:30:26;;;;;;;36.00;15.52;;;;;;;15.12;100.00;102361.41;5053305;28;20057;-52
2021/11/09 00:32:52;;;;;;;46.03;15.70;;;;;;;14.95;100.00;102358.06;5036628;28;20402;-52
2021/11/09 00:35:23;;;;;;;39.78;14.68;;;;;;;14.82;100.00;102356.03;5053943;28;20045;-49
2021/11/09 00:37:50;;;;;;;40.65;14.85;;;;;;;14.70;100.00;102352.94;5053686;28;20072;-49
2021/11/09 00:40:18;;;;;;;40.13;15.98;;;;;;;14.76;100.00;102351.41;5052376;28;20044;-50
2021/11/09 00:42:44;;;;;;;42.00;15.90;;;;;;;14.65;100.00;102347.28;5052621;28;20040;-54
2021/11/09 00:45:11;;;;;;;37.35;16.08;;;;;;;14.47;100.00;102353.88;5052479;28;20136;-50
2021/11/09 00:47:37;;;;;;;49.70;15.50;;;;;;;14.55;100.00;102361.03;5053559;28;20039;-52
2021/11/09 00:50:05;;;;;;;35.93;15.00;;;;;;;14.56;100.00;102359.19;5052347;28;20124;-54
2021/11/09 00:52:31;;;;;;;54.72;15.40;;;;;;;14.24;100.00;102353.09;5035965;28;20098;-53
2021/11/09 00:54:56;;;;;;;58.20;17.45;;;;;;;13.96;100.00;102349.16;5052444;28;20469;-52
2021/11/09 00:57:22;;;;;;;39.03;14.87;;;;;;;14.07;100.00;102347.91;5053098;28;20137;-50
2021/11/09 00:59:48;;;;;;;38.53;15.63;;;;;;;14.33;100.00;102343.94;5054244;28;20283;-53
2021/11/09 01:02:14;;;;;;;42.40;16.15;;;;;;;14.37;100.00;102342.56;5053491;28;20037;-53
2021/11/09 01:04:39;;;;;;;48.40;16.00;;;;;;;14.15;100.00;102345.13;5053323;28;20098;-52
2021/11/09 01:07:05;;;;;;;41.88;17.20;;;;;;;14.21;100.00;102343.56;5053024;28;20357;-50
2021/11/09 01:09:30;;;;;;;41.72;14.98;;;;;;;14.26;100.00;102340.28;5053274;28;20052;-51
2021/11/09 01:11:56;;;;;;;36.83;16.23;;;;;;;14.29;100.00;102345.31;5052666;28;20069;-54
2021/11/09 01:14:24;;;;;;;41.95;16.77;;;;;;;14.27;100.00;102347.34;5051916;28;20099;-50
2021/11/09 01:16:50;;;;;;;50.50;16.85;;;;;;;14.43;100.00;102341.81;5085203;28;20048;-51
2021/11/09 01:19:16;;;;;;;45.67;16.10;;;;;;;14.56;100.00;102351.13;5035484;28;20052;-53
2021/11/09 01:21:42;;;;;;;39.00;16.27;;;;;;;14.58;100.00;102346.38;5053546;28;20063;-50
2021/11/09 01:24:09;;;;;;;51.17;17.70;;;;;;;14.54;100.00;102343.22;5052738;28;20382;-49
2021/11/09 01:26:34;;;;;;;43.67;16.67;;;;;;;14.59;100.00;102346.19;5051762;28;20350;-51
2021/11/09 01:29:05;;;;;;;33.13;12.77;;;;;;;14.53;100.00;102343.38;5052771;28;20049;-53
2021/11/09 01:31:30;;;;;;;42.30;15.10;;;;;;;14.44;100.00;102348.03;5053246;28;20332;-49
2021/11/09 01:33:56;;;;;;;43.70;16.27;;;;;;;14.47;100.00;102345.78;5089318;28;20045;-52
2021/11/09 01:36:23;;;;;;;49.88;15.10;;;;;;;14.17;100.00;102350.28;5057290;28;20298;-53
2021/11/09 01:38:48;;;;;;;;;;;;;;;14.39;100.00;102348.59;5058021;28;20120;-54
2021/11/09 01:41:15;;;;;;;35.73;14.90;;;;;;;14.55;100.00;102349.44;5056871;28;19999;-50
2021/11/09 01:43:41;;;;;;;;;;;;;;;14.14;100.00;102354.22;5056211;28;20036;-51
2021/11/09 01:46:08;;;;;;;47.35;14.40;;;;;;;14.19;100.00;102361.75;5056898;28;19913;-49
2021/11/09 01:48:34;;;;;;;41.45;14.23;;;;;;;14.20;100.00;102358.03;5056836;28;20037;-50
2021/11/09 01:51:04;;;;;;;43.22;15.38;;;;;;;14.28;100.00;102359.78;5056782;28;20043;-54
2021/11/09 01:53:30;;;;;;;42.97;14.50;;;;;;;14.27;100.00;102352.72;5056996;28;20041;-51
2021/11/09 01:56:01;;;;;;;32.17;15.57;;;;;;;13.85;100.00;102358.50;5055857;28;20211;-52
2021/11/09 01:58:27;;;;;;;48.78;14.43;;;;;;;14.13;100.00;102357.91;5057015;28;20045;-54
2021/11/09 02:00:56;;;;;;;37.88;15.30;;;;;;;13.75;100.00;102363.25;5056537;28;20068;-54
2021/11/09 02:03:24;;;;;;;40.25;15.80;;;;;;;13.79;100.00;102367.25;5055313;28;20053;-52
2021/11/09 02:05:50;;;;;;;40.72;14.10;;;;;;;13.96;100.00;102359.06;5056725;28;20079;-54
2021/11/09 02:08:17;;;;;;;44.78;16.08;;;;;;;14.31;100.00;102364.81;5056446;28;20041;-51
2021/11/09 02:10:45;;;;;;;47.42;16.85;;;;;;;14.02;100.00;102366.41;5056338;28;20073;-52
2021/11/09 02:13:11;;;;;;;39.72;15.15;;;;;;;13.90;100.00;102364.16;5055106;28;20034;-49
2021/11/09 02:15:38;;;;;;;30.15;14.82;;;;;;;13.88;100.00;102365.34;5055356;28;20043;-53
2021/11/09 02:18:06;;;;;;;46.08;15.90;;;;;;;14.10;100.00;102358.28;5056142;28;20037;-55
2021/11/09 02:20:33;;;;;;;40.38;16.08;;;;;;;14.41;100.00;102365.38;5056500;28;20036;-53
2021/11/09 02:22:59;;;;;;;47.90;15.63;;;;;;;14.28;100.00;102349.88;5054910;28;20040;-53
2021/11/09 02:25:29;;;;;;;38.42;14.80;;;;;;;13.77;100.00;102353.16;5056100;28;20041;-52
2021/11/09 02:27:55;;;;;;;34.97;14.27;;;;;;;13.30;100.00;102346.91;5056144;28;20041;-52
2021/11/09 02:30:24;;;;;;;37.97;14.13;;;;;;;13.40;100.00;102346.69;5056130;28;20033;-49
2021/11/09 02:32:52;;;;;;;43.10;14.43;;;;;;;13.63;100.00;102352.09;5055956;28;20061;-50
2021/11/09 02:35:17;;;;;;;38.60;14.50;;;;;;;13.40;100.00;102349.34;5056487;28;20397;-54
2021/11/09 02:37:44;;;;;;;44.35;13.45;;;;;;;13.28;100.00;102351.63;5056020;28;20052;-53
2021/11/09 02:40:10;;;;;;;;;;;;;;;13.09;100.00;102351.03;5056483;28;20041;-53
2021/11/09 02:42:40;;;;;;;47.33;14.27;;;;;;;13.28;100.00;102347.06;5054669;28;19912;-54
2021/11/09 02:45:18;;;;;;;45.85;14.55;;;;;;;13.66;100.00;102334.78;5055997;28;20123;-56
2021/11/09 02:48:01;;;;;;;37.10;14.23;;;;;;;13.55;100.00;102339.53;5056296;28;20048;-55
2021/11/09 02:50:33;;;;;;;53.33;15.73;;;;;;;13.59;100.00;102345.41;5056237;28;20077;-54
2021/11/09 02:53:07;;;;;;;38.78;15.05;;;;;;;13.63;100.00;102346.72;5054864;28;20037;-49
2021/11/09 02:55:39;;;;;;;46.17;13.55;;;;;;;13.68;100.00;102333.56;5055800;28;20041;-52
2021/11/09 03:00:47;;;;;;;47.38;15.15;;;;;;;13.54;100.00;102342.41;5059077;28;20469;-54
2021/11/09 03:03:18;;;;;;;39.95;13.88;;;;;;;13.46;100.00;102343.31;5058021;28;20040;-54
2021/11/09 03:05:52;;;;;;;49.13;17.00;;;;;;;13.22;100.00;102338.88;5088233;28;20053;-53
2021/11/09 03:08:35;;;;;;;35.15;14.18;;;;;;;13.20;100.00;102341.75;5056216;28;20091;-51
2021/11/09 03:11:02;;;;;;;41.17;13.82;;;;;;;13.09;100.00;102334.91;5056040;28;20537;-51
2021/11/09 03:13:28;;;;;;;46.22;15.07;;;;;;;13.20;100.00;102344.44;5055414;28;20029;-52
2021/11/09 03:15:58;;;;;;;44.15;14.00;;;;;;;13.41;100.00;102340.28;5054159;28;20472;-52
2021/11/09 03:18:26;;;;;;;48.67;14.45;;;;;;;13.22;100.00;102338.88;5055107;28;20037;-52
2021/11/09 03:45:19;;;;;;;42.75;14.95;;;;;;;13.36;100.00;102350.69;5053547;28;20481;-50
2021/11/09 03:47:49;;;;;;;38.60;15.57;;;;;;;13.40;100.00;102366.31;5055432;28;20037;-50
2021/11/09 03:50:16;;;;;;;69.80;15.07;;;;;;;13.25;100.00;102365.38;5054653;28;20491;-49
2021/11/09 03:52:49;;;;;;;42.17;14.30;;;;;;;13.24;100.00;102353.81;5054368;28;20033;-53
2021/11/09 03:55:26;;;;;;;47.33;14.48;;;;;;;13.02;100.00;102355.41;5054208;28;20033;-51
2021/11/09 03:58:03;;;;;;;49.47;15.90;;;;;;;13.14;100.00;102361.22;5054927;28;20603;-51
2021/11/09 04:00:43;;;;;;;40.50;14.50;;;;;;;13.69;100.00;102359.41;5054617;28;20091;-49
2021/11/09 04:05:58;;;;;;;47.47;16.38;;;;;;;13.28;100.00;102370.41;5054881;28;20059;-49
2021/11/09 04:33:04;;;;;;;45.88;18.00;;;;;;;13.13;100.00;102375.66;5053739;28;20041;-49
2021/11/09 05:09:29;;;;;;;55.25;22.30;;;;;;;12.61;100.00;102381.41;5052916;28;20477;-50
2021/11/09 05:11:55;;;;;;;58.47;21.88;;;;;;;12.63;100.00;102378.53;5053382;28;20047;-47
2021/11/09 05:14:20;;;;;;;54.73;20.57;;;;;;;12.46;100.00;102391.13;5053573;28;20116;-53
2021/11/09 05:16:46;;;;;;;44.63;19.17;;;;;;;12.96;100.00;102396.38;5052118;28;20029;-51
2021/11/09 05:19:11;;;;;;;59.10;21.90;;;;;;;12.82;100.00;102395.25;5053042;28;20277;-55
2021/11/09 05:21:39;;;;;;;53.40;21.30;;;;;;;12.72;100.00;102392.75;5053294;28;20090;-55
2021/11/09 05:24:06;;;;;;;58.72;21.75;;;;;;;12.82;100.00;102395.25;5053229;28;20037;-50
2021/11/09 05:26:32;;;;;;;55.25;21.30;;;;;;;12.82;100.00;102393.44;5052875;28;20041;-51
2021/11/09 05:28:58;;;;;;;55.05;21.23;;;;;;;12.32;100.00;102398.84;5051956;28;20461;-50
2021/11/09 05:31:23;;;;;;;54.37;21.37;;;;;;;12.69;100.00;102399.34;5053426;28;20055;-52
2021/11/09 05:33:54;;;;;;;60.87;22.00;;;;;;;12.58;100.00;102402.34;5052609;28;20041;-56
2021/11/09 05:36:20;;;;;;;57.33;23.35;;;;;;;12.69;100.00;102402.03;5051718;28;20274;-56
2021/11/09 05:38:53;;;;;;;;;;;;;;;12.52;100.00;102413.78;5053499;28;20100;-51
2021/11/09 05:41:21;;;;;;;57.65;24.15;;;;;;;12.95;100.00;102408.13;5053027;28;19923;-51
2021/11/09 05:43:47;;;;;;;63.28;23.10;;;;;;;12.93;100.00;102410.16;5053082;28;20047;-52
2021/11/09 05:46:12;;;;;;;69.90;23.95;;;;;;;12.64;100.00;102412.41;5069282;28;20124;-51
2021/11/09 05:48:38;;;;;;;61.42;22.13;;;;;;;12.40;100.00;102407.94;5053023;28;20507;-51
2021/11/09 05:51:08;;;;;;;68.57;23.02;;;;;;;12.62;100.00;102412.59;5068456;28;20044;-52
2021/11/09 05:53:35;;;;;;;51.05;23.25;;;;;;;12.47;100.00;102411.59;5052942;28;20044;-49
2021/11/09 05:56:04;;;;;;;59.65;23.50;;;;;;;12.82;100.00;102412.22;5052649;28;20051;-52
2021/11/09 05:58:29;;;;;;;58.65;23.42;;;;;;;12.40;100.00;102405.25;5052812;28;20124;-52
2021/11/09 06:00:55;;;;;;;71.33;23.40;;;;;;;12.70;100.00;102410.91;5053406;28;20071;-49
2021/11/09 06:03:23;;;;;;;55.88;21.33;;;;;;;12.64;100.00;102416.94;5051507;28;20418;-52
2021/11/09 06:05:53;;;;;;;54.60;23.20;;;;;;;12.58;100.00;102415.78;5053127;28;20124;-53
2021/11/09 06:08:20;;;;;;;62.67;22.13;;;;;;;12.80;100.00;102424.13;5051168;28;20106;-52
2021/11/09 06:10:46;;;;;;;57.72;22.52;;;;;;;12.59;100.00;102409.41;5052917;28;20057;-48
2021/11/09 06:13:12;;;;;;;;;;;;;;;12.45;100.00;102414.44;5053494;28;20047;-52
2021/11/09 06:15:37;;;;;;;59.83;21.90;;;;;;;12.42;100.00;102419.31;5051167;28;19913;-51
2021/11/09 06:18:03;;;;;;;61.42;22.35;;;;;;;12.58;100.00;102421.16;5085982;28;20094;-51
2021/11/09 06:20:29;;;;;;;52.95;25.00;;;;;;;12.53;100.00;102423.50;5055134;28;20080;-52
2021/11/09 06:22:54;;;;;;;61.53;23.23;;;;;;;12.60;100.00;102428.03;5056013;28;20068;-51
2021/11/09 06:25:23;;;;;;;51.50;21.70;;;;;;;12.18;100.00;102432.56;5055860;28;20550;-48
2021/11/09 06:27:49;;;;;;;55.22;22.25;;;;;;;12.38;100.00;102429.53;5055695;28;20076;-48
2021/11/09 06:30:15;;;;;;;67.60;25.80;;;;;;;12.29;100.00;102426.03;5055764;28;20045;-48
2021/11/09 06:32:40;;;;;;;66.10;23.85;;;;;;;12.24;100.00;102416.81;5055827;28;20037;-50
2021/11/09 06:35:07;;;;;;;62.60;22.33;;;;;;;12.24;100.00;102416.81;5055991;28;20405;-50
2021/11/09 06:37:33;;;;;;;63.10;22.35;;;;;;;12.61;100.00;102440.44;5056268;28;20106;-53
2021/11/09 06:39:59;;;;;;;;;;;;;;;12.46;100.00;102442.97;5056235;28;20079;-52
2021/11/09 06:42:25;;;;;;;62.63;22.73;;;;;;;12.67;100.00;102438.06;5055813;28;19912;-53
2021/11/09 06:44:50;;;;;;;56.97;21.97;;;;;;;12.02;100.00;102435.25;5055965;28;20480;-52
2021/11/09 06:47:15;;;;;;;64.73;24.60;;;;;;;11.97;100.00;102437.53;5055781;28;20522;-51
2021/11/09 06:49:41;;;;;;;55.20;22.13;;;;;;;12.36;100.00;102442.28;5054071;28;20495;-55
2021/11/09 06:52:07;;;;;;;53.40;21.43;;;;;;;12.70;100.00;102451.16;5055538;28;20037;-54
2021/11/09 06:54:33;;;;;;;72.53;22.25;;;;;;;12.60;100.00;102451.34;5055880;28;20324;-50
2021/11/09 06:56:59;;;;;;;66.30;23.73;;;;;;;12.42;100.00;102449.66;5054579;28;20131;-53
2021/11/09 06:59:25;;;;;;;69.33;24.33;;;;;;;12.17;100.00;102457.69;5037504;28;20080;-52
2021/11/09 07:01:51;;;;;;;60.92;22.77;;;;;;;12.57;100.00;102457.91;5054308;28;20065;-52
2021/11/09 07:04:16;;;;;;;69.70;21.92;;;;;;;12.48;100.00;102467.78;5055168;28;20033;-51
2021/11/09 07:06:42;;;;;;;57.17;21.95;;;;;;;12.64;100.00;102459.91;5053867;28;20461;-55
2021/11/09 07:09:08;;;;;;;55.00;20.87;;;;;;;12.73;100.00;102470.44;5053886;28;20052;-55
2021/11/09 07:11:34;;;;;;;66.85;22.60;;;;;;;12.80;100.00;102476.00;5054815;28;20677;-52
2021/11/09 07:13:59;;;;;;;60.90;21.95;;;;;;;12.64;100.00;102468.78;5054034;28;20405;-54
2021/11/09 07:16:26;;;;;;;63.07;22.77;;;;;;;12.50;100.00;102472.16;5055120;28;20491;-50
2021/11/09 07:18:57;;;;;;;60.25;22.67;;;;;;;12.57;100.00;102475.81;5053644;28;20341;-49
2021/11/09 07:21:22;;;;;;;75.25;21.38;;;;;;;12.86;100.00;102475.31;5054885;28;20044;-53
2021/11/09 07:23:48;;;;;;;58.87;22.23;;;;;;;12.27;100.00;102470.13;5054913;28;20041;-49
2021/11/09 07:26:13;;;;;;;61.70;21.50;;;;;;;12.39;100.00;102466.09;5055378;28;20045;-51
2021/11/09 07:28:40;;;;;;;54.10;22.38;;;;;;;12.57;100.00;102481.19;5053685;28;20497;-52
2021/11/09 07:31:06;;;;;;;57.05;22.15;;;;;;;12.65;100.00;102473.13;5053699;28;20111;-52
2021/11/09 07:33:32;;;;;;;56.47;19.77;;;;;;;12.45;100.00;102483.38;5055308;28;20461;-52
2021/11/09 07:35:58;;;;;;;59.13;20.58;;;;;;;12.87;100.00;102489.53;5054888;28;20072;-53
2021/11/09 07:38:24;;;;;;;58.90;22.17;;;;;;;12.33;100.00;102485.56;5052483;28;20053;-51
2021/11/09 07:40:50;;;;;;;49.85;18.05;;;;;;;12.62;100.00;102484.22;5054053;28;20129;-52
2021/11/09 07:43:16;;;;;;;48.63;21.80;;;;;;;12.47;100.00;102498.31;5054116;28;20115;-52
2021/11/09 07:45:43;;;;;;;62.90;23.77;;;;;;;12.61;100.00;102493.25;5054113;28;20274;-55
2021/11/09 07:48:10;;;;;;;55.53;20.35;;;;;;;13.11;100.00;102498.56;5054287;28;20040;-54
2021/11/09 07:50:35;;;;;;;60.90;22.15;;;;;;;13.53;100.00;102502.00;5054165;28;20041;-51
2021/11/09 07:53:03;;;;;;;61.17;22.55;;;;;;;13.40;100.00;102492.59;5054459;28;20056;-50
2021/11/09 07:55:37;;;;;;;44.17;18.83;;;;;;;13.59;100.00;102496.75;5054231;28;20127;-49
2021/11/09 07:58:07;;;;;;;50.30;21.02;;;;;;;13.85;100.00;102503.72;5054989;28;20041;-53
2021/11/09 08:00:35;;;;;;;53.92;18.80;;;;;;;14.41;100.00;102508.03;5054219;28;20029;-50
2021/11/09 08:05:33;;;;;;;53.07;18.57;;;;;;;14.17;100.00;102515.28;5052608;28;20048;-51
2021/11/09 08:08:12;;;;;;;61.55;19.67;;;;;;;13.98;100.00;102521.09;5054015;28;20105;-49
2021/11/09 08:10:38;;;;;;;56.00;19.73;;;;;;;14.23;100.00;102512.88;5054548;28;20044;-51
2021/11/09 08:13:04;;;;;;;60.90;18.23;;;;;;;13.97;100.00;102520.28;5069690;28;20044;-50
2021/11/09 08:15:30;;;;;;;55.20;19.57;;;;;;;13.61;100.00;102515.41;5053526;28;20111;-50
2021/11/09 08:17:56;;;;;;;46.45;16.90;;;;;;;13.49;100.00;102523.00;5052801;28;20428;-50
2021/11/09 08:20:22;;;;;;;48.73;18.60;;;;;;;13.59;100.00;102518.25;5053735;28;20516;-49
2021/11/09 08:22:48;;;;;;;50.60;19.65;;;;;;;13.69;100.00;102519.91;5052766;28;20166;-52
2021/11/09 08:25:14;;;;;;;56.00;20.75;;;;;;;13.64;100.00;102524.97;5069404;28;20207;-51
2021/11/09 08:27:39;;;;;;;53.42;18.98;;;;;;;13.69;100.00;102526.09;5054028;28;20138;-52
2021/11/09 08:30:05;;;;;;;49.07;19.63;;;;;;;13.97;100.00;102525.66;5053451;28;20032;-51
2021/11/09 08:32:31;;;;;;;55.40;20.13;;;;;;;13.76;100.00;102520.88;5053202;28;20037;-49
2021/11/09 08:34:56;;;;;;;50.10;19.57;;;;;;;13.99;100.00;102522.78;5053262;28;20447;-54
2021/11/09 08:37:22;;;;;;;49.80;18.00;;;;;;;15.16;100.00;102508.22;5053073;28;20136;-52
2021/11/09 08:39:48;;;;;;;50.83;17.30;;;;;;;15.64;100.00;102515.06;5053468;28;20487;-50
2021/11/09 08:42:24;;;;;;;46.60;17.75;;;;;;;16.31;100.00;102509.59;5051786;28;20037;-49
2021/11/09 08:45:01;;;;;;;35.00;14.02;;;;;;;16.77;96.87;102519.97;5053683;28;20048;-53
2021/11/09 08:47:31;;;;;;;33.92;13.27;;;;;;;17.02;90.94;102522.25;5053582;28;20068;-52
2021/11/09 08:49:57;;;;;;;41.13;13.03;;;;;;;17.44;88.49;102519.59;5053244;28;20033;-50
2021/11/09 08:52:24;;;;;;;37.07;13.43;;;;;;;18.00;84.12;102525.00;5051727;28;20320;-51
2021/11/09 08:58:01;;;;;;;35.93;13.10;;;;;;;18.66;74.58;102523.44;5051770;28;20352;-53
2021/11/09 09:05:55;;;;;;;34.50;12.40;;;;;;;19.00;68.99;102527.00;5052812;28;20318;-50
2021/11/09 09:08:22;;;;;;;33.00;12.45;;;;;;;18.83;71.34;102520.31;5051818;28;20684;-55
2021/11/09 09:10:48;;;;;;;34.23;12.17;;;;;;;18.99;70.77;102519.91;5052345;28;20040;-54
2021/11/09 09:13:13;;;;;;;32.75;10.82;;;;;;;19.18;70.69;102530.94;5051428;28;20352;-50
2021/11/09 09:15:39;;;;;;;35.03;11.95;;;;;;;19.12;67.93;102523.63;5051334;28;20489;-52
2021/11/09 09:18:06;;;;;;;34.42;11.80;;;;;;;19.68;66.67;102515.94;5052713;28;20049;-50
2021/11/09 09:20:44;;;;;;;45.37;11.87;;;;;;;20.23;63.16;102512.72;5051062;28;20041;-54
2021/11/09 09:23:17;;;;;;;38.67;11.57;;;;;;;20.36;61.27;102522.66;5052407;28;20317;-51
2021/11/09 09:25:52;;;;;;;33.77;11.13;;;;;;;20.65;61.37;102525.75;5051566;28;20372;-54
2021/11/09 09:57:44;;;;;;;34.60;12.43;;;;;;;23.94;47.03;102530.00;5056210;28;20033;-50
2021/11/09 10:00:11;;;;;;;30.73;12.43;;;;;;;23.46;46.26;102534.81;5054954;28;20036;-50
2021/11/09 10:02:57;;;;;;;34.87;13.13;;;;;;;23.92;45.72;102526.69;5056206;28;20052;-51
2021/11/09 10:05:25;;;;;;;34.23;13.20;;;;;;;23.36;46.43;102524.50;5056239;28;20087;-51
2021/11/09 10:07:54;;;;;;;36.03;12.73;;;;;;;23.50;46.94;102522.34;5055777;28;20039;-55
2021/11/09 10:10:25;;;;;;;36.07;14.17;;;;;;;23.96;45.33;102521.56;5056045;28;20449;-56
2021/11/09 10:13:10;;;;;;;33.90;14.03;;;;;;;23.82;45.66;102524.59;5055814;28;20153;-52
2021/11/09 10:15:38;;;;;;;40.53;15.53;;;;;;;23.66;46.12;102520.75;5054964;28;20043;-52
2021/11/09 10:18:09;;;;;;;39.27;16.77;;;;;;;23.65;45.97;102515.53;5056096;28;20041;-53
2021/11/09 10:20:41;;;;;;;44.57;16.70;;;;;;;24.54;43.64;102535.16;5055477;28;20057;-50
2021/11/09 10:23:13;;;;;;;44.97;17.73;;;;;;;24.97;42.53;102530.91;5055542;28;20045;-53
2021/11/09 10:25:39;;;;;;;47.10;20.10;;;;;;;24.16;43.59;102527.41;5054732;28;20037;-54
2021/11/09 10:28:07;;;;;;;54.03;20.58;;;;;;;24.98;42.29;102532.56;5056476;28;20043;-55
2021/11/09 10:30:39;;;;;;;50.90;21.03;;;;;;;24.68;42.69;102533.75;5055926;28;20095;-50
2021/11/09 10:33:05;;;;;;;50.77;20.63;;;;;;;24.22;42.68;102530.22;5056206;28;20036;-51
2021/11/09 10:35:32;;;;;;;52.38;21.55;;;;;;;24.16;43.55;102535.63;5056041;28;20032;-52
2021/11/09 10:38:03;;;;;;;48.33;19.40;;;;;;;24.20;42.85;102534.03;5055052;28;20504;-50
2021/11/09 10:40:35;;;;;;;49.10;19.90;;;;;;;24.24;42.61;102533.56;5055769;28;20040;-50
2021/11/09 10:43:07;;;;;;;44.37;19.00;;;;;;;25.24;40.95;102532.03;5054988;28;20037;-50
2021/11/09 10:45:35;;;;;;;44.93;18.37;;;;;;;24.36;42.35;102531.56;5054730;28;20064;-49
2021/11/09 10:48:04;;;;;;;44.77;19.33;;;;;;;24.46;42.44;102531.75;5054905;28;20051;-49
2021/11/09 10:50:34;;;;;;;43.50;15.80;;;;;;;24.10;42.54;102536.59;5053989;28;20029;-50
2021/11/09 10:53:16;;;;;;;40.93;17.37;;;;;;;24.27;42.93;102525.69;5054675;28;20048;-49
2021/11/09 10:55:52;;;;;;;34.33;14.20;;;;;;;22.79;45.78;102531.44;5055234;28;20048;-50
2021/11/09 11:06:12;;;;;;;31.20;12.40;;;;;;;22.06;49.85;102526.06;5054631;28;20082;-51
2021/11/09 11:08:39;;;;;;;34.10;12.23;;;;;;;21.85;51.66;102528.25;5054631;28;20037;-49
2021/11/09 11:11:37;;;;;;;37.10;12.97;;;;;;;21.76;51.87;102532.38;5054319;28;20385;-49
2021/11/09 11:14:05;;;;;;;32.95;11.27;;;;;;;21.59;53.40;102527.50;5045060;28;20051;-52
2021/11/09 11:16:44;;;;;;;29.30;10.67;;;;;;;21.55;54.19;102534.47;5054347;28;20106;-49
2021/11/09 11:19:43;;;;;;;29.30;10.60;;;;;;;21.60;54.82;102534.63;5054116;28;20055;-51
2021/11/09 11:22:17;;;;;;;29.03;9.50;;;;;;;21.18;56.27;102524.44;5053217;28;20270;-51
2021/11/09 11:24:45;;;;;;;30.40;9.40;;;;;;;21.62;54.61;102529.78;5053318;28;20056;-49
2021/11/09 11:27:12;;;;;;;25.93;8.73;;;;;;;22.53;51.87;102527.28;5052914;28;20069;-51
2021/11/09 11:29:39;;;;;;;25.97;9.13;;;;;;;22.74;49.82;102534.06;5053641;28;20094;-51
2021/11/09 11:32:11;;;;;;;23.50;9.20;;;;;;;21.56;52.62;102519.81;5054319;28;20045;-50
2021/11/09 11:34:38;;;;;;;32.20;10.33;;;;;;;21.39;53.84;102514.16;5053958;28;20033;-50
2021/11/09 11:37:05;;;;;;;28.63;8.63;;;;;;;21.50;55.07;102515.28;5052782;28;20327;-49
2021/11/09 11:39:34;;;;;;;23.67;9.87;;;;;;;21.28;55.50;102517.63;5054430;28;20067;-49
2021/11/09 11:42:07;;;;;;;23.70;7.83;;;;;;;21.80;54.04;102514.50;5053564;28;20036;-49
2021/11/09 11:44:33;;;;;;;22.03;8.10;;;;;;;22.22;53.19;102510.94;5052983;28;20037;-54
2021/11/09 11:47:11;;;;;;;26.83;9.05;;;;;;;22.94;50.53;102506.41;5054098;28;20068;-51
2021/11/09 11:49:42;;;;;;;29.73;9.40;;;;;;;23.13;49.10;102509.00;5052967;28;20044;-50
2021/11/09 11:52:14;;;;;;;27.97;9.20;;;;;;;23.13;49.50;102498.09;5054044;28;20033;-49
2021/11/09 11:54:43;;;;;;;26.17;8.33;;;;;;;22.75;50.99;102498.34;5053832;28;20045;-53
2021/11/09 11:57:10;;;;;;;32.37;10.07;;;;;;;22.21;52.12;102501.13;5052960;28;20032;-50
2021/11/09 11:59:36;;;;;;;29.23;8.87;;;;;;;21.61;53.92;102509.06;5052823;28;20048;-48
2021/11/09 12:02:04;;;;;;;23.23;8.77;;;;;;;21.03;57.82;102491.34;5052623;28;20033;-51
2021/11/09 12:04:36;;;;;;;26.77;9.27;;;;;;;21.46;57.35;102498.56;5054535;28;20111;-53
2021/11/09 12:07:06;;;;;;;27.07;8.37;;;;;;;21.09;59.75;102484.16;5054438;28;20048;-50
2021/11/09 12:09:33;;;;;;;25.57;8.87;;;;;;;20.81;60.54;102493.66;5054970;28;20622;-50
2021/11/09 12:11:59;;;;;;;;;;;;;;;21.60;57.71;102491.06;5053537;28;20266;-50
2021/11/09 12:14:25;;;;;;;27.03;9.47;;;;;;;21.40;56.39;102498.66;5052608;28;20015;-49
2021/11/09 12:17:02;;;;;;;28.80;8.35;;;;;;;20.88;59.13;102491.69;5054115;28;20116;-53
2021/11/09 12:19:34;;;;;;;29.07;8.97;;;;;;;21.12;59.90;102486.44;5054291;28;20079;-52
2021/11/09 12:22:15;;;;;;;28.90;8.13;;;;;;;21.31;57.94;102479.09;5053349;28;20274;-53
2021/11/09 12:24:51;;;;;;;24.40;8.20;;;;;;;21.91;56.13;102488.38;5054080;28;20327;-54
2021/11/09 12:27:18;;;;;;;21.48;7.43;;;;;;;21.92;55.61;102484.59;5053589;28;20315;-53
2021/11/09 12:29:49;;;;;;;21.63;7.00;;;;;;;21.94;55.41;102481.66;5053290;28;20098;-53
2021/11/09 12:32:21;;;;;;;29.70;7.73;;;;;;;21.98;55.00;102477.38;5036080;28;20293;-53
2021/11/09 12:35:14;;;;;;;27.17;7.50;;;;;;;21.88;54.17;102495.09;5053864;28;20268;-52
2021/11/09 12:37:43;;;;;;;27.03;7.37;;;;;;;21.82;53.14;102490.59;5053149;28;20369;-51
2021/11/09 12:40:33;;;;;;;22.80;8.73;;;;;;;21.32;56.19;102481.59;5053735;28;20037;-52
2021/11/09 12:43:31;;;;;;;17.83;7.10;;;;;;;21.17;56.20;102470.25;5052890;28;20323;-49
2021/11/09 12:46:09;;;;;;;32.47;7.65;;;;;;;21.14;56.66;102471.56;5053346;28;20310;-53
2021/11/09 12:48:37;;;;;;;23.30;6.63;;;;;;;20.95;57.88;102473.41;5051448;28;20045;-54
2021/11/09 12:51:09;;;;;;;24.30;6.97;;;;;;;21.47;56.43;102473.03;5053195;28;20479;-52
2021/11/09 12:53:39;;;;;;;23.53;5.93;;;;;;;21.12;56.71;102462.78;5052872;28;20270;-49
2021/11/09 12:56:15;;;;;;;26.93;7.20;;;;;;;20.88;58.13;102456.34;5052355;28;20679;-50
2021/11/09 12:58:52;;;;;;;27.83;8.23;;;;;;;21.34;57.37;102454.97;5053035;28;20286;-51
2021/11/09 13:09:31;;;;;;;20.43;7.17;;;;;;;21.41;56.18;102444.00;5052485;28;20285;-55
2021/11/09 13:12:10;;;;;;;26.97;7.83;;;;;;;21.67;54.74;102442.00;5053113;28;20262;-55
2021/11/09 13:15:00;;;;;;;25.97;7.17;;;;;;;21.63;53.90;102444.31;5051546;28;20269;-55
2021/11/09 13:17:45;;;;;;;29.13;7.37;;;;;;;21.33;53.32;102444.31;5052686;28;20591;-53
2021/11/09 13:23:00;;;;;;;21.17;7.43;;;;;;;21.90;52.24;102438.50;5051896;28;20309;-54
2021/11/09 13:25:37;;;;;;;26.13;7.90;;;;;;;21.55;52.70;102441.94;5052277;28;20262;-52
2021/11/09 13:28:19;;;;;;;25.00;6.88;;;;;;;22.12;51.13;102432.50;5053134;28;20665;-53
2021/11/09 13:30:48;;;;;;;19.80;6.27;;;;;;;22.53;48.65;102434.59;5056828;28;20052;-51
2021/11/09 13:33:13;;;;;;;29.30;6.97;;;;;;;23.20;46.68;102433.28;5056167;28;20283;-53
2021/11/09 13:35:43;;;;;;;24.70;7.30;;;;;;;23.41;45.92;102429.09;5056335;28;20037;-54
2021/11/09 13:38:13;;;;;;;29.30;6.73;;;;;;;23.44;45.14;102435.94;5055370;28;20424;-54
2021/11/09 13:41:02;;;;;;;25.03;6.77;;;;;;;22.96;45.28;102422.44;5056518;28;20033;-50
2021/11/09 13:43:51;;;;;;;23.73;7.07;;;;;;;22.28;47.06;102422.84;5056617;28;20431;-53